sensor_id;sensor_type;location;lat;lon;timestamp;pressure;altitude;pressure_sealevel;temperature
27826;BMP280;15077;49.704;9.908;2022-09-12T00:01:04;98357.03;;;20.24
27826;BMP280;15077;49.704;9.908;2022-09-12T00:03:31;98352.84;;;20.23
27826;BMP280;15077;49.704;9.908;2022-09-12T00:05:57;98353.06;;;20.20
27826;BMP280;15077;49.704;9.908;2022-09-12T00:08:23;98345.47;;;20.19
27826;BMP280;15077;49.704;9.908;2022-09-12T00:10:49;98348.25;;;20.16
27826;BMP280;15077;49.704;9.908;2022-09-12T00:13:15;98344.16;;;20.13
27826;BMP280;15077;49.704;9.908;2022-09-12T00:15:43;98344.25;;;20.12
27826;BMP280;15077;49.704;9.908;2022-09-12T00:18:14;98329.06;;;20.09
27826;BMP280;15077;49.704;9.908;2022-09-12T00:20:45;98340.50;;;20.05
27826;BMP280;15077;49.704;9.908;2022-09-12T00:23:13;98337.94;;;20.05
27826;BMP280;15077;49.704;9.908;2022-09-12T00:25:46;98321.78;;;20.03
27826;BMP280;15077;49.704;9.908;2022-09-12T00:28:15;98328.81;;;20.01
27826;BMP280;15077;49.704;9.908;2022-09-12T00:30:44;98321.31;;;19.98
27826;BMP280;15077;49.704;9.908;2022-09-12T00:33:11;98329.97;;;19.97
27826;BMP280;15077;49.704;9.908;2022-09-12T00:35:50;98317.44;;;19.93
27826;BMP280;15077;49.704;9.908;2022-09-12T00:38:20;98320.94;;;19.92
27826;BMP280;15077;49.704;9.908;2022-09-12T00:40:47;98316.88;;;19.89
27826;BMP280;15077;49.704;9.908;2022-09-12T00:43:53;98315.88;;;19.79
27826;BMP280;15077;49.704;9.908;2022-09-12T00:46:29;98315.63;;;19.82
27826;BMP280;15077;49.704;9.908;2022-09-12T00:49:17;98311.75;;;19.77
27826;BMP280;15077;49.704;9.908;2022-09-12T00:51:56;98305.81;;;19.76
27826;BMP280;15077;49.704;9.908;2022-09-12T00:54:32;98305.06;;;19.74
27826;BMP280;15077;49.704;9.908;2022-09-12T00:57:03;98309.31;;;19.75
27826;BMP280;15077;49.704;9.908;2022-09-12T00:59:42;98299.47;;;19.69
27826;BMP280;15077;49.704;9.908;2022-09-12T01:02:10;98302.97;;;19.68
27826;BMP280;15077;49.704;9.908;2022-09-12T01:04:40;98296.19;;;19.67
27826;BMP280;15077;49.704;9.908;2022-09-12T01:07:07;98292.91;;;19.65
27826;BMP280;15077;49.704;9.908;2022-09-12T01:09:34;98295.59;;;19.64
27826;BMP280;15077;49.704;9.908;2022-09-12T01:12:01;98306.94;;;19.61
27826;BMP280;15077;49.704;9.908;2022-09-12T01:14:29;98300.13;;;19.60
27826;BMP280;15077;49.704;9.908;2022-09-12T01:16:56;98305.50;;;19.57
27826;BMP280;15077;49.704;9.908;2022-09-12T01:22:53;98301.03;;;19.48
27826;BMP280;15077;49.704;9.908;2022-09-12T01:34:22;98291.88;;;19.34
27826;BMP280;15077;49.704;9.908;2022-09-12T01:37:33;98291.13;;;19.32
27826;BMP280;15077;49.704;9.908;2022-09-12T01:42:48;98285.28;;;19.30
27826;BMP280;15077;49.704;9.908;2022-09-12T01:45:31;98289.72;;;19.28
27826;BMP280;15077;49.704;9.908;2022-09-12T01:48:11;98283.97;;;19.24
27826;BMP280;15077;49.704;9.908;2022-09-12T01:50:58;98284.31;;;19.20
27826;BMP280;15077;49.704;9.908;2022-09-12T01:53:35;98289.44;;;19.20
27826;BMP280;15077;49.704;9.908;2022-09-12T01:56:20;98286.28;;;19.16
27826;BMP280;15077;49.704;9.908;2022-09-12T01:58:57;98286.28;;;19.16
27826;BMP280;15077;49.704;9.908;2022-09-12T02:01:32;98279.59;;;19.14
27826;BMP280;15077;49.704;9.908;2022-09-12T02:04:06;98279.06;;;18.98
27826;BMP280;15077;49.704;9.908;2022-09-12T02:09:35;98272.78;;;19.02
27826;BMP280;15077;49.704;9.908;2022-09-12T02:12:08;98273.69;;;19.01
27826;BMP280;15077;49.704;9.908;2022-09-12T02:14:45;98282.31;;;19.00
27826;BMP280;15077;49.704;9.908;2022-09-12T02:17:19;98274.72;;;18.98
27826;BMP280;15077;49.704;9.908;2022-09-12T02:20:03;98262.22;;;18.94
27826;BMP280;15077;49.704;9.908;2022-09-12T02:22:34;98269.00;;;18.95
27826;BMP280;15077;49.704;9.908;2022-09-12T02:25:04;98265.69;;;18.93
27826;BMP280;15077;49.704;9.908;2022-09-12T02:27:39;98266.75;;;18.91
27826;BMP280;15077;49.704;9.908;2022-09-12T02:30:07;98267.78;;;18.88
27826;BMP280;15077;49.704;9.908;2022-09-12T02:35:51;98270.25;;;18.77
27826;BMP280;15077;49.704;9.908;2022-09-12T02:38:27;98273.47;;;18.81
27826;BMP280;15077;49.704;9.908;2022-09-12T02:40:54;98265.13;;;18.77
27826;BMP280;15077;49.704;9.908;2022-09-12T02:43:21;98276.34;;;18.76
27826;BMP280;15077;49.704;9.908;2022-09-12T02:45:47;98272.13;;;18.75
27826;BMP280;15077;49.704;9.908;2022-09-12T02:48:20;98265.22;;;18.76
27826;BMP280;15077;49.704;9.908;2022-09-12T02:50:46;98277.38;;;18.74
27826;BMP280;15077;49.704;9.908;2022-09-12T02:53:12;98270.47;;;18.74
27826;BMP280;15077;49.704;9.908;2022-09-12T02:55:40;98261.16;;;18.73
27826;BMP280;15077;49.704;9.908;2022-09-12T02:58:17;98268.84;;;18.73
27826;BMP280;15077;49.704;9.908;2022-09-12T03:00:59;98266.41;;;18.72
27826;BMP280;15077;49.704;9.908;2022-09-12T03:04:09;98265.19;;;18.65
27826;BMP280;15077;49.704;9.908;2022-09-12T03:09:51;98267.75;;;18.65
27826;BMP280;15077;49.704;9.908;2022-09-12T03:16:36;98259.88;;;18.55
27826;BMP280;15077;49.704;9.908;2022-09-12T03:19:24;98270.94;;;18.56
27826;BMP280;15077;49.704;9.908;2022-09-12T03:22:10;98267.38;;;18.58
27826;BMP280;15077;49.704;9.908;2022-09-12T03:25:05;98273.63;;;18.54
27826;BMP280;15077;49.704;9.908;2022-09-12T03:27:53;98266.72;;;18.55
27826;BMP280;15077;49.704;9.908;2022-09-12T03:30:22;98265.00;;;18.55
27826;BMP280;15077;49.704;9.908;2022-09-12T03:32:53;98269.19;;;18.56
27826;BMP280;15077;49.704;9.908;2022-09-12T03:35:23;98268.50;;;18.54
27826;BMP280;15077;49.704;9.908;2022-09-12T03:37:51;98265.22;;;18.52
27826;BMP280;15077;49.704;9.908;2022-09-12T03:40:17;98266.84;;;18.53
27826;BMP280;15077;49.704;9.908;2022-09-12T03:42:43;98271.16;;;18.53
27826;BMP280;15077;49.704;9.908;2022-09-12T03:45:10;98277.31;;;18.50
27826;BMP280;15077;49.704;9.908;2022-09-12T03:47:36;98269.72;;;18.49
27826;BMP280;15077;49.704;9.908;2022-09-12T03:50:04;98274.97;;;18.48
27826;BMP280;15077;49.704;9.908;2022-09-12T03:52:30;98274.25;;;18.46
27826;BMP280;15077;49.704;9.908;2022-09-12T03:54:56;98270.16;;;18.43
27826;BMP280;15077;49.704;9.908;2022-09-12T03:57:22;98267.69;;;18.42
27826;BMP280;15077;49.704;9.908;2022-09-12T03:59:48;98268.59;;;18.41
27826;BMP280;15077;49.704;9.908;2022-09-12T04:02:16;98269.56;;;18.40
27826;BMP280;15077;49.704;9.908;2022-09-12T04:04:42;98265.44;;;18.37
27826;BMP280;15077;49.704;9.908;2022-09-12T04:07:09;98268.13;;;18.36
27826;BMP280;15077;49.704;9.908;2022-09-12T04:09:35;98268.31;;;18.33
27826;BMP280;15077;49.704;9.908;2022-09-12T04:12:02;98265.75;;;18.33
27826;BMP280;15077;49.704;9.908;2022-09-12T04:14:27;98267.63;;;18.31
27826;BMP280;15077;49.704;9.908;2022-09-12T04:16:54;98274.47;;;18.30
27826;BMP280;15077;49.704;9.908;2022-09-12T04:19:20;98270.41;;;18.28
27826;BMP280;15077;49.704;9.908;2022-09-12T04:21:47;98283.31;;;18.26
27826;BMP280;15077;49.704;9.908;2022-09-12T04:24:12;98274.09;;;18.24
27826;BMP280;15077;49.704;9.908;2022-09-12T04:26:38;98275.94;;;18.22
27826;BMP280;15077;49.704;9.908;2022-09-12T04:29:05;98281.06;;;18.22
27826;BMP280;15077;49.704;9.908;2022-09-12T04:31:31;98278.50;;;18.22
27826;BMP280;15077;49.704;9.908;2022-09-12T04:34:00;98275.94;;;18.22
27826;BMP280;15077;49.704;9.908;2022-09-12T04:36:28;98264.84;;;18.21
27826;BMP280;15077;49.704;9.908;2022-09-12T04:38:54;98271.03;;;18.19
27826;BMP280;15077;49.704;9.908;2022-09-12T04:41:30;98265.91;;;18.19
27826;BMP280;15077;49.704;9.908;2022-09-12T04:44:14;98263.44;;;18.17
27826;BMP280;15077;49.704;9.908;2022-09-12T04:46:44;98265.91;;;18.19
27826;BMP280;15077;49.704;9.908;2022-09-12T04:49:12;98263.22;;;18.20
27826;BMP280;15077;49.704;9.908;2022-09-12T04:51:41;98265.91;;;18.19
27826;BMP280;15077;49.704;9.908;2022-09-12T04:54:16;98273.47;;;18.20
27826;BMP280;15077;49.704;9.908;2022-09-12T04:56:47;98262.47;;;18.18
27826;BMP280;15077;49.704;9.908;2022-09-12T04:59:15;98269.16;;;18.21
27826;BMP280;15077;49.704;9.908;2022-09-12T05:01:44;98262.38;;;18.20
27826;BMP280;15077;49.704;9.908;2022-09-12T05:04:12;98264.03;;;18.21
27826;BMP280;15077;49.704;9.908;2022-09-12T05:06:39;98269.16;;;18.21
27826;BMP280;15077;49.704;9.908;2022-09-12T05:09:09;98269.16;;;18.21
27826;BMP280;15077;49.704;9.908;2022-09-12T05:11:39;98271.84;;;18.19
27826;BMP280;15077;49.704;9.908;2022-09-12T05:14:05;98270.19;;;18.18
27826;BMP280;15077;49.704;9.908;2022-09-12T05:16:32;98271.72;;;18.21
27826;BMP280;15077;49.704;9.908;2022-09-12T05:18:58;98281.06;;;18.22
27826;BMP280;15077;49.704;9.908;2022-09-12T05:21:26;98276.03;;;18.20
27826;BMP280;15077;49.704;9.908;2022-09-12T05:23:57;98283.75;;;18.20
27826;BMP280;15077;49.704;9.908;2022-09-12T05:26:25;98295.03;;;18.18
27826;BMP280;15077;49.704;9.908;2022-09-12T05:28:53;98280.66;;;18.15
27826;BMP280;15077;49.704;9.908;2022-09-12T05:31:25;98287.31;;;18.18
27826;BMP280;15077;49.704;9.908;2022-09-12T05:33:53;98296.88;;;18.16
27826;BMP280;15077;49.704;9.908;2022-09-12T05:36:24;98300.16;;;18.18
27826;BMP280;15077;49.704;9.908;2022-09-12T05:38:51;98300.16;;;18.18
27826;BMP280;15077;49.704;9.908;2022-09-12T05:41:23;98296.69;;;18.19
27826;BMP280;15077;49.704;9.908;2022-09-12T05:43:55;98301.81;;;18.19
27826;BMP280;15077;49.704;9.908;2022-09-12T05:46:25;98293.16;;;18.20
27826;BMP280;15077;49.704;9.908;2022-09-12T05:48:52;98301.59;;;18.22
27826;BMP280;15077;49.704;9.908;2022-09-12T05:51:23;98294.59;;;18.24
27826;BMP280;15077;49.704;9.908;2022-09-12T05:53:57;98297.06;;;18.25
27826;BMP280;15077;49.704;9.908;2022-09-12T05:56:26;98304.88;;;18.24
27826;BMP280;15077;49.704;9.908;2022-09-12T05:59:18;98305.28;;;18.18
27826;BMP280;15077;49.704;9.908;2022-09-12T06:01:45;98303.53;;;18.18
27826;BMP280;15077;49.704;9.908;2022-09-12T06:04:12;98303.63;;;18.17
27826;BMP280;15077;49.704;9.908;2022-09-12T06:06:42;98301.91;;;18.17
27826;BMP280;15077;49.704;9.908;2022-09-12T06:09:11;98298.59;;;18.15
27826;BMP280;15077;49.704;9.908;2022-09-12T06:11:39;98305.28;;;18.18
27826;BMP280;15077;49.704;9.908;2022-09-12T06:14:10;98304.47;;;18.17
27826;BMP280;15077;49.704;9.908;2022-09-12T06:16:37;98304.56;;;18.16
27826;BMP280;15077;49.704;9.908;2022-09-12T06:19:07;98299.34;;;18.17
27826;BMP280;15077;49.704;9.908;2022-09-12T06:21:39;98304.38;;;18.19
27826;BMP280;15077;49.704;9.908;2022-09-12T06:24:08;98306.00;;;18.20
27826;BMP280;15077;49.704;9.908;2022-09-12T06:26:34;98307.66;;;18.21
27826;BMP280;15077;49.704;9.908;2022-09-12T06:29:00;98304.16;;;18.22
27826;BMP280;15077;49.704;9.908;2022-09-12T06:31:33;98294.50;;;18.25
27826;BMP280;15077;49.704;9.908;2022-09-12T06:34:03;98294.41;;;18.27
27826;BMP280;15077;49.704;9.908;2022-09-12T06:36:36;98295.09;;;18.29
27826;BMP280;15077;49.704;9.908;2022-09-12T06:39:10;98295.00;;;18.30
27826;BMP280;15077;49.704;9.908;2022-09-12T06:41:37;98293.97;;;18.33
27826;BMP280;15077;49.704;9.908;2022-09-12T06:44:03;98299.81;;;18.35
27826;BMP280;15077;49.704;9.908;2022-09-12T06:46:29;98298.81;;;18.37
27826;BMP280;15077;49.704;9.908;2022-09-12T06:48:59;98295.22;;;18.40
27826;BMP280;15077;49.704;9.908;2022-09-12T06:51:27;98299.22;;;18.44
27826;BMP280;15077;49.704;9.908;2022-09-12T06:53:55;98302.59;;;18.44
27826;BMP280;15077;49.704;9.908;2022-09-12T06:56:25;98300.75;;;18.46
27826;BMP280;15077;49.704;9.908;2022-09-12T06:58:54;98295.41;;;18.49
27826;BMP280;15077;49.704;9.908;2022-09-12T07:01:25;98297.75;;;18.52
27826;BMP280;15077;49.704;9.908;2022-09-12T07:03:55;98295.91;;;18.54
27826;BMP280;15077;49.704;9.908;2022-09-12T07:06:24;98296.53;;;18.57
27826;BMP280;15077;49.704;9.908;2022-09-12T07:08:59;98298.06;;;18.60
27826;BMP280;15077;49.704;9.908;2022-09-12T07:11:31;98303.91;;;18.62
27826;BMP280;15077;49.704;9.908;2022-09-12T07:14:01;98306.50;;;18.49
27826;BMP280;15077;49.704;9.908;2022-09-12T07:16:28;98298.88;;;18.60
27826;BMP280;15077;49.704;9.908;2022-09-12T07:18:57;98299.25;;;18.67
27826;BMP280;15077;49.704;9.908;2022-09-12T07:21:24;98294.75;;;18.70
27826;BMP280;15077;49.704;9.908;2022-09-12T07:23:50;98304.81;;;18.73
27826;BMP280;15077;49.704;9.908;2022-09-12T07:26:16;98299.47;;;18.76
27826;BMP280;15077;49.704;9.908;2022-09-12T07:28:43;98300.84;;;18.80
27826;BMP280;15077;49.704;9.908;2022-09-12T07:31:17;98299.94;;;18.81
27826;BMP280;15077;49.704;9.908;2022-09-12T07:33:44;98310.09;;;18.83
27826;BMP280;15077;49.704;9.908;2022-09-12T07:36:15;98299.63;;;18.86
27826;BMP280;15077;49.704;9.908;2022-09-12T07:38:42;98309.78;;;18.87
27826;BMP280;15077;49.704;9.908;2022-09-12T07:41:13;98306.19;;;18.90
27826;BMP280;15077;49.704;9.908;2022-09-12T07:43:40;98315.34;;;18.94
27826;BMP280;15077;49.704;9.908;2022-09-12T07:46:09;98312.56;;;18.97
27826;BMP280;15077;49.704;9.908;2022-09-12T07:48:36;98307.09;;;19.01
27826;BMP280;15077;49.704;9.908;2022-09-12T07:51:10;98306.78;;;19.05
27826;BMP280;15077;49.704;9.908;2022-09-12T07:53:40;98306.25;;;19.13
27826;BMP280;15077;49.704;9.908;2022-09-12T07:56:08;98307.66;;;19.17
27826;BMP280;15077;49.704;9.908;2022-09-12T07:58:36;98306.50;;;19.21
27826;BMP280;15077;49.704;9.908;2022-09-12T08:01:09;98307.09;;;19.24
27826;BMP280;15077;49.704;9.908;2022-09-12T08:03:42;98306.88;;;19.27
27826;BMP280;15077;49.704;9.908;2022-09-12T08:06:14;98315.09;;;19.32
27826;BMP280;15077;49.704;9.908;2022-09-12T08:08:41;98309.84;;;19.34
27826;BMP280;15077;49.704;9.908;2022-09-12T08:11:11;98315.47;;;19.39
27826;BMP280;15077;49.704;9.908;2022-09-12T08:13:39;98315.97;;;19.44
27826;BMP280;15077;49.704;9.908;2022-09-12T08:16:11;98319.94;;;19.47
27826;BMP280;15077;49.704;9.908;2022-09-12T08:18:38;98324.88;;;19.50
27826;BMP280;15077;49.704;9.908;2022-09-12T08:21:11;98322.69;;;19.57
27826;BMP280;15077;49.704;9.908;2022-09-12T08:23:37;98314.75;;;19.60
27826;BMP280;15077;49.704;9.908;2022-09-12T08:26:05;98308.31;;;19.65
27826;BMP280;15077;49.704;9.908;2022-09-12T08:28:33;98316.53;;;19.70
27826;BMP280;15077;49.704;9.908;2022-09-12T08:31:08;98312.78;;;19.74
27826;BMP280;15077;49.704;9.908;2022-09-12T08:33:36;98310.09;;;19.76
27826;BMP280;15077;49.704;9.908;2022-09-12T08:36:19;98306.50;;;19.78
27826;BMP280;15077;49.704;9.908;2022-09-12T08:38:52;98313.06;;;19.82
27826;BMP280;15077;49.704;9.908;2022-09-12T08:44:27;98315.22;;;19.88
27826;BMP280;15077;49.704;9.908;2022-09-12T08:47:14;98306.47;;;19.91
27826;BMP280;15077;49.704;9.908;2022-09-12T08:52:50;98307.28;;;20.02
27826;BMP280;15077;49.704;9.908;2022-09-12T08:58:21;98312.34;;;20.14
27826;BMP280;15077;49.704;9.908;2022-09-12T09:01:26;98327.69;;;20.16
27826;BMP280;15077;49.704;9.908;2022-09-12T09:04:19;98316.81;;;20.23
27826;BMP280;15077;49.704;9.908;2022-09-12T09:07:30;98312.47;;;20.24
27826;BMP280;15077;49.704;9.908;2022-09-12T09:10:19;98307.56;;;20.32
27826;BMP280;15077;49.704;9.908;2022-09-12T09:16:43;98309.91;;;20.35
27826;BMP280;15077;49.704;9.908;2022-09-12T09:19:26;98309.66;;;20.48
27826;BMP280;15077;49.704;9.908;2022-09-12T09:22:12;98314.72;;;20.50
27826;BMP280;15077;49.704;9.908;2022-09-12T09:24:51;98308.97;;;20.57
27826;BMP280;15077;49.704;9.908;2022-09-12T09:27:40;98299.34;;;20.59
27826;BMP280;15077;49.704;9.908;2022-09-12T09:30:15;98307.31;;;20.67
27826;BMP280;15077;49.704;9.908;2022-09-12T09:33:04;98304.53;;;20.70
27826;BMP280;15077;49.704;9.908;2022-09-12T09:35:43;98307.09;;;20.81
27826;BMP280;15077;49.704;9.908;2022-09-12T09:43:58;98301.22;;;21.01
27826;BMP280;15077;49.704;9.908;2022-09-12T09:46:25;98294.63;;;21.08
27826;BMP280;15077;49.704;9.908;2022-09-12T09:48:52;98299.16;;;21.15
27826;BMP280;15077;49.704;9.908;2022-09-12T09:51:27;98296.94;;;21.22
27826;BMP280;15077;49.704;9.908;2022-09-12T09:54:04;98298.09;;;21.29
27826;BMP280;15077;49.704;9.908;2022-09-12T09:56:38;98301.56;;;21.39
27826;BMP280;15077;49.704;9.908;2022-09-12T09:59:16;98289.41;;;21.30
27826;BMP280;15077;49.704;9.908;2022-09-12T10:04:26;98282.81;;;21.68
27826;BMP280;15077;49.704;9.908;2022-09-12T10:06:57;98290.94;;;21.84
27826;BMP280;15077;49.704;9.908;2022-09-12T10:09:33;98286.03;;;22.01
27826;BMP280;15077;49.704;9.908;2022-09-12T10:12:20;98269.13;;;22.17
27826;BMP280;15077;49.704;9.908;2022-09-12T10:15:04;98271.84;;;22.36
27826;BMP280;15077;49.704;9.908;2022-09-12T10:17:46;98273.66;;;22.54
27826;BMP280;15077;49.704;9.908;2022-09-12T10:20:35;98264.13;;;22.55
27826;BMP280;15077;49.704;9.908;2022-09-12T10:25:57;98267.84;;;23.01
27826;BMP280;15077;49.704;9.908;2022-09-12T10:28:53;98264.97;;;23.13
27826;BMP280;15077;49.704;9.908;2022-09-12T10:31:28;98266.78;;;23.32
27826;BMP280;15077;49.704;9.908;2022-09-12T10:33:59;98268.00;;;23.46
27826;BMP280;15077;49.704;9.908;2022-09-12T10:36:35;98266.63;;;23.61
27826;BMP280;15077;49.704;9.908;2022-09-12T10:39:02;98266.22;;;23.75
27826;BMP280;15077;49.704;9.908;2022-09-12T10:41:40;98264.97;;;23.89
27826;BMP280;15077;49.704;9.908;2022-09-12T10:44:28;98267.41;;;23.99
27826;BMP280;15077;49.704;9.908;2022-09-12T10:46:57;98252.91;;;24.16
27826;BMP280;15077;49.704;9.908;2022-09-12T10:49:30;98253.13;;;24.32
27826;BMP280;15077;49.704;9.908;2022-09-12T10:52:22;98250.91;;;24.46
27826;BMP280;15077;49.704;9.908;2022-09-12T10:54:50;98241.56;;;24.62
27826;BMP280;15077;49.704;9.908;2022-09-12T10:57:53;98241.63;;;24.70
27826;BMP280;15077;49.704;9.908;2022-09-12T11:00:22;98238.13;;;24.89
27826;BMP280;15077;49.704;9.908;2022-09-12T11:15:00;98218.63;;;25.54
27826;BMP280;15077;49.704;9.908;2022-09-12T11:17:40;98221.84;;;25.65
27826;BMP280;15077;49.704;9.908;2022-09-12T11:43:37;98188.47;;;26.37
27826;BMP280;15077;49.704;9.908;2022-09-12T11:46:36;98187.22;;;26.40
27826;BMP280;15077;49.704;9.908;2022-09-12T12:00:51;98188.59;;;26.76
27826;BMP280;15077;49.704;9.908;2022-09-12T12:03:45;98185.22;;;26.84
27826;BMP280;15077;49.704;9.908;2022-09-12T12:06:20;98179.19;;;26.75
27826;BMP280;15077;49.704;9.908;2022-09-12T12:08:48;98178.28;;;26.92
27826;BMP280;15077;49.704;9.908;2022-09-12T12:11:32;98179.44;;;26.97
27826;BMP280;15077;49.704;9.908;2022-09-12T12:14:03;98176.97;;;27.04
27826;BMP280;15077;49.704;9.908;2022-09-12T12:16:37;98167.88;;;27.08
27826;BMP280;15077;49.704;9.908;2022-09-12T12:19:33;98167.56;;;27.11
27826;BMP280;15077;49.704;9.908;2022-09-12T12:22:27;98173.25;;;27.14
27826;BMP280;15077;49.704;9.908;2022-09-12T12:25:07;98172.09;;;27.25
27826;BMP280;15077;49.704;9.908;2022-09-12T12:27:54;98170.81;;;27.29
27826;BMP280;15077;49.704;9.908;2022-09-12T12:38:02;98149.34;;;27.58
27826;BMP280;15077;49.704;9.908;2022-09-12T12:40:30;98149.50;;;27.65
27826;BMP280;15077;49.704;9.908;2022-09-12T12:43:01;98141.81;;;27.71
27826;BMP280;15077;49.704;9.908;2022-09-12T12:48:10;98136.91;;;27.76
27826;BMP280;15077;49.704;9.908;2022-09-12T12:50:39;98139.84;;;27.81
27826;BMP280;15077;49.704;9.908;2022-09-12T12:53:25;98131.22;;;27.81
27826;BMP280;15077;49.704;9.908;2022-09-12T12:55:54;98124.19;;;27.89
27826;BMP280;15077;49.704;9.908;2022-09-12T13:03:36;98115.16;;;28.07
27826;BMP280;15077;49.704;9.908;2022-09-12T13:06:07;98114.53;;;28.13
27826;BMP280;15077;49.704;9.908;2022-09-12T13:08:55;98104.91;;;28.14
27826;BMP280;15077;49.704;9.908;2022-09-12T13:11:38;98107.28;;;28.23
27826;BMP280;15077;49.704;9.908;2022-09-12T13:14:35;98102.91;;;28.24
27826;BMP280;15077;49.704;9.908;2022-09-12T13:17:07;98101.88;;;28.33
27826;BMP280;15077;49.704;9.908;2022-09-12T13:19:39;98100.88;;;28.34
27826;BMP280;15077;49.704;9.908;2022-09-12T13:22:08;98096.66;;;28.33
27826;BMP280;15077;49.704;9.908;2022-09-12T13:24:46;98084.91;;;28.37
27826;BMP280;15077;49.704;9.908;2022-09-12T13:27:19;98088.00;;;28.40
27826;BMP280;15077;49.704;9.908;2022-09-12T13:29:46;98081.78;;;28.41
27826;BMP280;15077;49.704;9.908;2022-09-12T13:32:12;98087.66;;;28.43
27826;BMP280;15077;49.704;9.908;2022-09-12T13:34:56;98093.66;;;28.43
27826;BMP280;15077;49.704;9.908;2022-09-12T13:43:15;98079.41;;;28.54
27826;BMP280;15077;49.704;9.908;2022-09-12T13:45:45;98077.28;;;28.57
27826;BMP280;15077;49.704;9.908;2022-09-12T13:48:21;98069.47;;;28.57
27826;BMP280;15077;49.704;9.908;2022-09-12T13:50:58;98067.47;;;28.59
27826;BMP280;15077;49.704;9.908;2022-09-12T13:53:39;98072.69;;;28.59
27826;BMP280;15077;49.704;9.908;2022-09-12T13:56:07;98071.91;;;28.59
27826;BMP280;15077;49.704;9.908;2022-09-12T13:58:33;98081.63;;;28.65
27826;BMP280;15077;49.704;9.908;2022-09-12T14:01:13;98074.28;;;28.68
27826;BMP280;15077;49.704;9.908;2022-09-12T14:03:51;98070.00;;;28.75
27826;BMP280;15077;49.704;9.908;2022-09-12T14:06:48;98063.91;;;28.83
27826;BMP280;15077;49.704;9.908;2022-09-12T14:09:37;98067.94;;;28.85
27826;BMP280;15077;49.704;9.908;2022-09-12T14:12:16;98056.47;;;28.94
27826;BMP280;15077;49.704;9.908;2022-09-12T14:14:48;98048.94;;;28.99
27826;BMP280;15077;49.704;9.908;2022-09-12T14:17:33;98045.66;;;28.97
27826;BMP280;15077;49.704;9.908;2022-09-12T14:20:22;98047.47;;;28.96
27826;BMP280;15077;49.704;9.908;2022-09-12T14:22:52;98043.00;;;29.05
27826;BMP280;15077;49.704;9.908;2022-09-12T14:25:21;98040.66;;;29.10
27826;BMP280;15077;49.704;9.908;2022-09-12T14:27:55;98037.34;;;29.16
27826;BMP280;15077;49.704;9.908;2022-09-12T14:30:35;98037.63;;;29.21
27826;BMP280;15077;49.704;9.908;2022-09-12T14:35:47;98036.22;;;29.33
27826;BMP280;15077;49.704;9.908;2022-09-12T14:38:33;98033.09;;;29.37
27826;BMP280;15077;49.704;9.908;2022-09-12T14:41:05;98023.25;;;29.39
27826;BMP280;15077;49.704;9.908;2022-09-12T14:43:35;98024.59;;;29.21
27826;BMP280;15077;49.704;9.908;2022-09-12T14:46:13;98027.69;;;29.38
27826;BMP280;15077;49.704;9.908;2022-09-12T14:48:50;98024.72;;;29.41
27826;BMP280;15077;49.704;9.908;2022-09-12T14:51:27;98017.84;;;29.40
27826;BMP280;15077;49.704;9.908;2022-09-12T14:53:55;98013.44;;;29.41
27826;BMP280;15077;49.704;9.908;2022-09-12T14:56:38;98018.84;;;29.39
27826;BMP280;15077;49.704;9.908;2022-09-12T15:02:21;98013.91;;;29.30
27826;BMP280;15077;49.704;9.908;2022-09-12T15:15:31;98008.31;;;29.47
27826;BMP280;15077;49.704;9.908;2022-09-12T15:17:57;98002.09;;;29.48
27826;BMP280;15077;49.704;9.908;2022-09-12T15:20:23;97996.72;;;29.50
27826;BMP280;15077;49.704;9.908;2022-09-12T15:22:51;97995.88;;;29.49
27826;BMP280;15077;49.704;9.908;2022-09-12T15:25:17;98002.75;;;29.50
27826;BMP280;15077;49.704;9.908;2022-09-12T15:27:44;97993.91;;;29.51
27826;BMP280;15077;49.704;9.908;2022-09-12T15:30:11;97991.94;;;29.53
27826;BMP280;15077;49.704;9.908;2022-09-12T15:32:40;97996.34;;;29.53
27826;BMP280;15077;49.704;9.908;2022-09-12T15:35:21;97998.50;;;29.49
27826;BMP280;15077;49.704;9.908;2022-09-12T15:37:48;97999.16;;;29.51
27826;BMP280;15077;49.704;9.908;2022-09-12T15:40:15;98000.56;;;29.54
27826;BMP280;15077;49.704;9.908;2022-09-12T15:42:42;98001.22;;;29.56
27826;BMP280;15077;49.704;9.908;2022-09-12T15:45:19;97998.41;;;29.57
27826;BMP280;15077;49.704;9.908;2022-09-12T15:47:46;97989.94;;;29.55
27826;BMP280;15077;49.704;9.908;2022-09-12T15:50:13;97988.16;;;29.56
27826;BMP280;15077;49.704;9.908;2022-09-12T15:52:39;97981.13;;;29.56
27826;BMP280;15077;49.704;9.908;2022-09-12T15:55:17;97982.75;;;29.57
27826;BMP280;15077;49.704;9.908;2022-09-12T15:57:44;97980.13;;;29.57
27826;BMP280;15077;49.704;9.908;2022-09-12T16:00:12;97976.25;;;29.53
27826;BMP280;15077;49.704;9.908;2022-09-12T16:02:39;97969.41;;;29.52
27826;BMP280;15077;49.704;9.908;2022-09-12T16:05:13;97971.41;;;29.50
27826;BMP280;15077;49.704;9.908;2022-09-12T16:07:39;97965.53;;;29.48
27826;BMP280;15077;49.704;9.908;2022-09-12T16:10:06;97965.72;;;29.47
27826;BMP280;15077;49.704;9.908;2022-09-12T16:12:32;97959.06;;;29.44
27826;BMP280;15077;49.704;9.908;2022-09-12T16:14:57;97962.03;;;29.41
27826;BMP280;15077;49.704;9.908;2022-09-12T16:17:23;97956.34;;;29.38
27826;BMP280;15077;49.704;9.908;2022-09-12T16:19:50;97953.31;;;29.35
27826;BMP280;15077;49.704;9.908;2022-09-12T16:22:16;97946.81;;;29.31
27826;BMP280;15077;49.704;9.908;2022-09-12T16:24:41;97944.56;;;29.28
27826;BMP280;15077;49.704;9.908;2022-09-12T16:27:08;97942.47;;;29.23
27826;BMP280;15077;49.704;9.908;2022-09-12T16:29:34;97937.97;;;29.17
27826;BMP280;15077;49.704;9.908;2022-09-12T16:31:59;97939.16;;;29.15
27826;BMP280;15077;49.704;9.908;2022-09-12T16:34:25;97939.53;;;29.12
27826;BMP280;15077;49.704;9.908;2022-09-12T16:36:51;97933.03;;;29.08
27826;BMP280;15077;49.704;9.908;2022-09-12T16:39:17;97934.38;;;29.04
27826;BMP280;15077;49.704;9.908;2022-09-12T16:41:43;97932.94;;;29.01
27826;BMP280;15077;49.704;9.908;2022-09-12T16:44:09;97927.28;;;28.98
27826;BMP280;15077;49.704;9.908;2022-09-12T16:46:35;97919.19;;;28.93
27826;BMP280;15077;49.704;9.908;2022-09-12T16:49:00;97926.72;;;28.88
27826;BMP280;15077;49.704;9.908;2022-09-12T16:51:31;97920.25;;;28.84
27826;BMP280;15077;49.704;9.908;2022-09-12T16:53:57;97926.19;;;28.78
27826;BMP280;15077;49.704;9.908;2022-09-12T16:56:24;97938.75;;;28.75
27826;BMP280;15077;49.704;9.908;2022-09-12T16:58:50;97933.28;;;28.70